Time,TemperatureF,DewpointF,PressureIn,WindDirection,WindDirectionDegrees,WindSpeedMPH,WindSpeedGustMPH,Humidity,HourlyPrecipIn,Conditions,Clouds,dailyrainin,SoftwareType,DateUTC
2013-03-19 00:00:00,60.3,17.9,25.66,SSW,208,0.0,3.1,19,0.00,,---,0.00,VWS V13.01,2013-03-19 07:00:00,
2013-03-19 00:20:00,59.2,17.0,25.66,SE,145,0.0,0.0,19,0.00,,---,0.00,VWS V13.01,2013-03-19 07:20:00,
2013-03-19 00:40:00,60.4,18.0,25.66,SW,222,3.6,10.5,19,0.00,,---,0.00,VWS V13.01,2013-03-19 07:40:00,
2013-03-19 01:00:00,60.4,18.0,25.66,West,274,3.6,8.3,19,0.00,,---,0.00,VWS V13.01,2013-03-19 08:00:00,
2013-03-19 01:20:00,60.3,17.9,25.66,SW,228,4.0,10.5,19,0.00,,---,0.00,VWS V13.01,2013-03-19 08:20:00,
2013-03-19 01:40:00,60.1,17.7,25.66,SSW,206,3.6,8.3,19,0.00,,---,0.00,VWS V13.01,2013-03-19 08:40:00,
2013-03-19 02:00:00,59.7,17.4,25.66,SSW,212,2.2,8.3,19,0.00,,---,0.00,VWS V13.01,2013-03-19 09:00:00,
2013-03-19 02:20:00,57.9,15.9,25.66,WNW,283,0.0,6.3,19,0.00,,---,0.00,VWS V13.01,2013-03-19 09:20:00,
2013-03-19 02:40:00,56.5,15.9,25.66,SSE,156,2.2,4.0,20,0.00,,---,0.00,VWS V13.01,2013-03-19 09:40:00,
2013-03-19 03:00:00,55.9,15.5,25.63,SE,142,0.0,3.6,20,0.00,,---,0.00,VWS V13.01,2013-03-19 10:00:00,
2013-03-19 03:20:00,55.6,15.2,25.63,SSW,208,0.0,0.0,20,0.00,,---,0.00,VWS V13.01,2013-03-19 10:20:00,
2013-03-19 03:40:00,55.0,14.7,25.63,SSW,207,0.0,0.0,20,0.00,,---,0.00,VWS V13.01,2013-03-19 10:40:00,
2013-03-19 04:00:00,54.1,14.0,25.63,SSW,207,0.0,0.0,20,0.00,,---,0.00,VWS V13.01,2013-03-19 11:00:00,
2013-03-19 04:20:00,53.8,13.7,25.63,South,175,0.0,0.0,20,0.00,,---,0.00,VWS V13.01,2013-03-19 11:20:00,
2013-03-19 04:40:00,53.2,14.3,25.63,SSE,165,0.0,3.1,21,0.00,,---,0.00,VWS V13.01,2013-03-19 11:40:00,
2013-03-19 05:00:00,52.7,13.9,25.63,SSE,165,0.0,0.0,21,0.00,,---,0.00,VWS V13.01,2013-03-19 12:00:00,
2013-03-19 05:20:00,52.3,13.6,25.63,SSE,153,0.0,0.0,21,0.00,,---,0.00,VWS V13.01,2013-03-19 12:20:00,
2013-03-19 05:40:00,52.2,13.4,25.63,South,182,0.0,0.0,21,0.00,,---,0.00,VWS V13.01,2013-03-19 12:40:00,
2013-03-19 06:00:00,51.1,12.5,25.66,SW,231,4.0,5.4,21,0.00,,---,0.00,VWS V13.01,2013-03-19 13:00:00,
2013-03-19 06:20:00,51.1,12.5,25.66,SW,216,0.0,5.4,21,0.00,,---,0.00,VWS V13.01,2013-03-19 13:20:00,
2013-03-19 06:40:00,51.1,12.5,25.66,West,265,0.0,0.0,21,0.00,,---,0.00,VWS V13.01,2013-03-19 13:40:00,
2013-03-19 07:00:00,50.7,15.3,25.66,SW,227,0.0,0.0,24,0.00,,---,0.00,VWS V13.01,2013-03-19 14:00:00,
2013-03-19 07:20:00,53.8,16.9,25.66,SSW,210,0.0,4.9,23,0.00,,---,0.00,VWS V13.01,2013-03-19 14:20:00,
2013-03-19 07:40:00,54.7,17.6,25.66,SSW,207,0.0,0.0,23,0.00,,---,0.00,VWS V13.01,2013-03-19 14:40:00,
2013-03-19 08:00:00,56.3,18.0,25.69,SSW,211,0.0,0.0,22,0.00,,---,0.00,VWS V13.01,2013-03-19 15:00:00,
2013-03-19 08:20:00,57.9,15.9,25.66,SE,129,0.0,0.0,19,0.00,,---,0.00,VWS V13.01,2013-03-19 15:20:00,
2013-03-19 08:40:00,59.2,17.0,25.66,SE,129,5.4,5.8,19,0.00,,---,0.00,VWS V13.01,2013-03-19 15:40:00,
2013-03-19 09:00:00,61.2,18.6,25.66,NE,43,2.7,5.4,19,0.00,,---,0.00,VWS V13.01,2013-03-19 16:00:00,
2013-03-19 09:20:00,62.8,18.7,25.69,NE,53,2.2,7.6,18,0.00,,---,0.00,VWS V13.01,2013-03-19 16:20:00,
2013-03-19 09:40:00,63.5,19.3,25.69,North,357,3.1,6.3,18,0.00,,---,0.00,VWS V13.01,2013-03-19 16:40:00,
2013-03-19 10:00:00,64.9,20.4,25.69,WNW,298,2.2,7.6,18,0.00,,---,0.00,VWS V13.01,2013-03-19 17:00:00,
2013-03-19 10:20:00,66.4,20.3,25.69,WNW,289,4.9,8.3,17,0.00,,---,0.00,VWS V13.01,2013-03-19 17:20:00,
2013-03-19 10:40:00,67.1,20.9,25.69,NW,305,11.0,16.8,17,0.00,,---,0.00,VWS V13.01,2013-03-19 17:40:00,
2013-03-19 11:00:00,67.3,21.0,25.69,West,269,8.7,15.0,17,0.00,,---,0.00,VWS V13.01,2013-03-19 18:00:00,
2013-03-19 11:20:00,68.4,21.9,25.69,WNW,301,8.7,16.8,17,0.00,,---,0.00,VWS V13.01,2013-03-19 18:20:00,
2013-03-19 11:40:00,69.4,22.8,25.69,West,272,8.1,15.0,17,0.00,,---,0.00,VWS V13.01,2013-03-19 18:40:00,
2013-03-19 12:00:00,71.1,24.1,25.69,SW,233,5.4,11.0,17,0.00,,---,0.00,VWS V13.01,2013-03-19 19:00:00,
2013-03-19 12:20:00,72.5,23.8,25.69,West,266,8.7,16.8,16,0.00,,---,0.00,VWS V13.01,2013-03-19 19:20:00,
2013-03-19 12:40:00,74.1,25.1,25.69,WNW,293,6.3,13.2,16,0.00,,---,0.00,VWS V13.01,2013-03-19 19:40:00,
2013-03-19 13:00:00,76.6,25.6,25.66,SW,225,5.8,15.0,15,0.00,,---,0.00,VWS V13.01,2013-03-19 20:00:00,
2013-03-19 13:20:00,77.9,26.6,25.66,WNW,301,3.6,13.2,15,0.00,,---,0.00,VWS V13.01,2013-03-19 20:20:00,
2013-03-19 13:40:00,79.2,27.6,25.66,SW,220,3.1,15.0,15,0.00,,---,0.00,VWS V13.01,2013-03-19 20:40:00,
2013-03-19 14:00:00,80.1,28.3,25.66,WNW,289,11.0,14.1,15,0.00,,---,0.00,VWS V13.01,2013-03-19 21:00:00,
2013-03-19 14:20:00,79.9,28.1,25.63,NW,314,5.8,12.3,15,0.00,,---,0.00,VWS V13.01,2013-03-19 21:20:00,
2013-03-19 14:40:00,79.7,28.0,25.63,WSW,239,3.6,13.6,15,0.00,,---,0.00,VWS V13.01,2013-03-19 21:40:00,
2013-03-19 15:00:00,80.6,27.0,25.63,SW,232,4.0,12.8,14,0.00,,---,0.00,VWS V13.01,2013-03-19 22:00:00,
2013-03-19 15:20:00,79.3,27.7,25.63,WSW,248,8.7,12.8,15,0.00,,---,0.00,VWS V13.01,2013-03-19 22:20:00,
2013-03-19 15:40:00,79.7,28.0,25.63,WNW,284,8.3,13.2,15,0.00,,---,0.00,VWS V13.01,2013-03-19 22:40:00,
2013-03-19 16:00:00,78.6,27.1,25.63,West,277,5.4,14.5,15,0.00,,---,0.00,VWS V13.01,2013-03-19 23:00:00,
2013-03-19 16:20:00,78.6,27.1,25.63,SW,235,4.0,12.8,15,0.00,,---,0.00,VWS V13.01,2013-03-19 23:20:00,
2013-03-19 16:40:00,77.7,26.4,25.63,WNW,302,5.8,15.4,15,0.00,,---,0.00,VWS V13.01,2013-03-19 23:40:00,
2013-03-19 17:00:00,76.1,25.1,25.63,WSW,242,11.0,11.9,15,0.00,,---,0.00,VWS V13.01,2013-03-20 00:00:00,
2013-03-19 17:20:00,73.4,24.5,25.63,West,273,6.3,15.4,16,0.00,,---,0.00,VWS V13.01,2013-03-20 00:20:00,
2013-03-19 17:40:00,72.1,23.5,25.63,NNW,334,9.6,11.0,16,0.00,,---,0.00,VWS V13.01,2013-03-20 00:40:00,
2013-03-19 18:00:00,70.5,23.6,25.66,NNE,28,4.0,10.5,17,0.00,,---,0.00,VWS V13.01,2013-03-20 01:00:00,
2013-03-19 18:20:00,69.3,22.6,25.63,NNW,333,2.7,12.3,17,0.00,,---,0.00,VWS V13.01,2013-03-20 01:20:00,
2013-03-19 18:40:00,68.2,21.7,25.66,North,349,3.6,8.1,17,0.00,,---,0.00,VWS V13.01,2013-03-20 01:40:00,
2013-03-19 19:00:00,67.3,21.0,25.69,WNW,295,3.1,6.3,17,0.00,,---,0.00,VWS V13.01,2013-03-20 02:00:00,
2013-03-19 19:20:00,66.0,21.3,25.69,NW,304,5.4,10.1,18,0.00,,---,0.00,VWS V13.01,2013-03-20 02:20:00,
2013-03-19 19:40:00,64.9,20.4,25.69,West,280,2.7,8.1,18,0.00,,---,0.00,VWS V13.01,2013-03-20 02:40:00,
2013-03-19 20:00:00,64.2,19.9,25.69,WNW,294,2.7,4.0,18,0.00,,---,0.00,VWS V13.01,2013-03-20 03:00:00,
2013-03-19 20:20:00,63.0,18.8,25.69,NW,306,5.4,6.3,18,0.00,,---,0.00,VWS V13.01,2013-03-20 03:20:00,
2013-03-19 20:40:00,62.4,19.6,25.69,WNW,292,2.7,7.2,19,0.00,,---,0.00,VWS V13.01,2013-03-20 03:40:00,
2013-03-19 21:00:00,61.7,19.0,25.72,West,267,2.7,6.3,19,0.00,,---,0.00,VWS V13.01,2013-03-20 04:00:00,
2013-03-19 21:20:00,61.0,18.5,25.72,SW,231,4.9,6.3,19,0.00,,---,0.00,VWS V13.01,2013-03-20 04:20:00,
2013-03-19 21:40:00,60.1,17.7,25.72,SW,229,2.7,5.4,19,0.00,,---,0.00,VWS V13.01,2013-03-20 04:40:00,
2013-03-19 22:00:00,59.2,17.0,25.72,SSW,213,3.1,4.9,19,0.00,,---,0.00,VWS V13.01,2013-03-20 05:00:00,
2013-03-19 22:20:00,58.3,16.2,25.72,SW,231,4.9,5.4,19,0.00,,---,0.00,VWS V13.01,2013-03-20 05:20:00,
2013-03-19 22:40:00,57.4,15.5,25.72,SW,223,2.7,5.4,19,0.00,,---,0.00,VWS V13.01,2013-03-20 05:40:00,
2013-03-19 23:00:00,57.2,15.3,25.72,SW,226,0.0,4.0,19,0.00,,---,0.00,VWS V13.01,2013-03-20 06:00:00,
2013-03-19 23:20:00,56.7,16.1,25.75,NW,305,3.6,4.0,20,0.00,,---,0.00,VWS V13.01,2013-03-20 06:20:00,
2013-03-19 23:40:00,56.8,16.2,25.75,WSW,241,3.1,4.9,20,0.00,,---,0.00,VWS V13.01,2013-03-20 06:40:00,